createdAt,value
2023-02-24T00:02:05.968Z,2.55
2023-02-24T00:04:39.041Z,2.90
2023-02-24T00:07:11.890Z,2.95
2023-02-24T00:09:41.528Z,2.75
2023-02-24T00:12:13.702Z,2.42
2023-02-24T00:14:45.851Z,3.47
2023-02-24T00:17:15.598Z,3.08
2023-02-24T00:19:46.641Z,2.22
2023-02-24T00:22:17.171Z,5.55
2023-02-24T00:24:46.975Z,2.03
2023-02-24T00:27:19.366Z,4.38
2023-02-24T00:29:48.978Z,2.45
2023-02-24T00:32:18.434Z,2.28
2023-02-24T00:34:52.971Z,3.35
2023-02-24T00:37:25.486Z,3.20
2023-02-24T00:39:58.765Z,5.63
2023-02-24T00:42:29.020Z,5.45
2023-02-24T00:44:58.916Z,2.65
2023-02-24T00:47:29.597Z,2.92
2023-02-24T00:49:59.242Z,3.28
2023-02-24T00:52:31.030Z,3.30
2023-02-24T00:55:01.315Z,3.28
2023-02-24T00:57:35.623Z,3.25
2023-02-24T01:00:10.493Z,2.78
2023-02-24T01:02:41.903Z,2.80
2023-02-24T01:05:13.038Z,4.28
2023-02-24T01:07:43.831Z,2.80
2023-02-24T01:10:13.768Z,2.92
2023-02-24T01:12:50.178Z,2.28
2023-02-24T01:15:21.980Z,3.13
2023-02-24T01:17:51.586Z,2.45
2023-02-24T01:20:20.980Z,2.72
2023-02-24T01:22:54.787Z,2.72
2023-02-24T01:25:24.123Z,3.47
2023-02-24T01:27:54.889Z,3.05
2023-02-24T01:30:24.759Z,5.30
2023-02-24T01:32:54.202Z,2.40
2023-02-24T01:35:25.258Z,3.33
2023-02-24T01:37:56.918Z,2.90
2023-02-24T01:40:27.767Z,3.50
2023-02-24T01:42:57.056Z,3.97
2023-02-24T01:45:29.501Z,2.75
2023-02-24T01:48:05.553Z,2.28
2023-02-24T01:50:38.462Z,2.35
2023-02-24T01:53:10.267Z,2.42
2023-02-24T01:55:47.222Z,3.00
2023-02-24T01:58:23.658Z,2.22
2023-02-24T02:00:54.642Z,2.78
2023-02-24T02:03:29.859Z,2.80
2023-02-24T02:06:02.811Z,4.13
2023-02-24T02:08:36.682Z,1.88
2023-02-24T02:11:08.857Z,2.00
2023-02-24T02:13:41.012Z,3.03
2023-02-24T02:16:27.786Z,1.97
2023-02-24T02:19:14.219Z,3.92
2023-02-24T02:22:17.794Z,2.58
2023-02-24T02:24:58.095Z,2.92
2023-02-24T02:27:58.371Z,1.60
2023-02-24T02:30:55.527Z,2.13
2023-02-24T02:33:57.467Z,1.92
2023-02-24T02:36:35.509Z,1.95
2023-02-24T02:39:13.509Z,3.10
2023-02-24T02:41:53.902Z,2.17
2023-02-24T02:44:28.432Z,3.65
2023-02-24T02:47:03.892Z,1.60
2023-02-24T02:49:40.081Z,3.13
2023-02-24T02:52:18.032Z,2.05
2023-02-24T02:54:50.913Z,2.63
2023-02-24T02:57:25.040Z,1.77
2023-02-24T02:59:58.958Z,2.15
2023-02-24T03:02:40.227Z,2.33
2023-02-24T03:05:13.206Z,2.97
2023-02-24T03:07:48.797Z,2.97
2023-02-24T03:10:22.617Z,2.10
2023-02-24T03:15:25.136Z,1.83
2023-02-24T03:18:02.036Z,1.40
2023-02-24T03:20:37.343Z,1.85
2023-02-24T03:23:17.118Z,2.15
2023-02-24T03:25:55.545Z,2.50
2023-02-24T03:28:35.633Z,2.83
2023-02-24T03:31:12.380Z,1.60
2023-02-24T03:33:48.311Z,2.35
2023-02-24T03:36:17.820Z,1.67
2023-02-24T03:38:50.813Z,1.90
2023-02-24T03:43:52.301Z,1.63
2023-02-24T03:46:25.355Z,1.80
2023-02-24T03:49:05.312Z,2.22
2023-02-24T03:51:36.994Z,2.33
2023-02-24T03:54:21.683Z,2.15
2023-02-24T03:57:06.499Z,2.25
2023-02-24T03:59:44.449Z,3.47
2023-02-24T04:02:20.163Z,1.67
2023-02-24T04:05:00.784Z,3.33
2023-02-24T04:07:45.188Z,1.77
2023-02-24T04:10:24.513Z,1.50
2023-02-24T04:13:02.352Z,2.38
2023-02-24T04:15:37.971Z,2.28
2023-02-24T04:18:15.224Z,1.55
2023-02-24T04:20:51.287Z,3.20
2023-02-24T04:23:27.986Z,1.80
2023-02-24T04:28:30.337Z,2.15
2023-02-24T04:31:09.011Z,1.50
2023-02-24T04:33:39.690Z,1.63
2023-02-24T04:36:13.030Z,1.85
2023-02-24T04:38:46.006Z,1.48
2023-02-24T04:41:21.835Z,1.92
2023-02-24T04:43:52.463Z,1.83
2023-02-24T04:46:23.682Z,1.95
2023-02-24T04:48:53.421Z,2.30
2023-02-24T04:51:23.130Z,1.67
2023-02-24T04:53:55.612Z,2.22
2023-02-24T04:56:26.628Z,2.10
2023-02-24T04:58:56.263Z,1.92
2023-02-24T05:01:28.002Z,1.92
2023-02-24T05:03:57.732Z,1.42
2023-02-24T05:06:27.256Z,1.80
2023-02-24T05:08:59.479Z,2.17
2023-02-24T05:11:34.920Z,1.60
2023-02-24T05:14:04.829Z,1.92
2023-02-24T05:16:34.266Z,1.75
2023-02-24T05:19:23.343Z,1.95
2023-02-24T05:21:52.987Z,1.70
2023-02-24T05:24:22.224Z,1.92
2023-02-24T05:27:05.690Z,1.83
2023-02-24T05:29:36.940Z,1.50
2023-02-24T05:32:08.526Z,2.13
2023-02-24T05:34:39.144Z,1.63
2023-02-24T05:37:10.862Z,1.90
2023-02-24T05:39:41.197Z,1.85
2023-02-24T05:42:11.856Z,1.13
2023-02-24T05:44:43.848Z,1.95
2023-02-24T05:47:17.139Z,1.50
2023-02-24T05:49:52.074Z,2.17
2023-02-24T05:52:21.439Z,2.57
2023-02-24T05:54:50.616Z,2.13
2023-02-24T05:57:24.934Z,3.15
2023-02-24T05:59:56.262Z,2.72
2023-02-24T06:02:29.323Z,3.35
2023-02-24T06:05:04.669Z,3.58
2023-02-24T06:07:35.614Z,1.85
2023-02-24T06:10:09.625Z,2.80
2023-02-24T06:12:40.401Z,4.22
2023-02-24T06:15:10.524Z,2.65
2023-02-24T06:17:39.579Z,2.92
2023-02-24T06:20:16.168Z,5.47
2023-02-24T06:22:44.996Z,4.18
2023-02-24T06:25:14.402Z,3.38
2023-02-24T06:27:45.581Z,3.05
2023-02-24T06:30:16.336Z,2.70
2023-02-24T06:32:45.900Z,3.10
2023-02-24T06:35:14.944Z,3.17
2023-02-24T06:37:44.233Z,4.38
2023-02-24T06:40:16.167Z,4.03
2023-02-24T06:42:50.850Z,2.45
2023-02-24T06:45:20.380Z,3.72
2023-02-24T06:47:50.031Z,3.30
2023-02-24T06:50:20.448Z,2.70
2023-02-24T06:52:49.896Z,3.28
2023-02-24T06:55:26.570Z,4.28
2023-02-24T06:57:59.355Z,4.15
2023-02-24T07:00:39.069Z,3.83
2023-02-24T07:03:17.811Z,2.50
2023-02-24T07:05:52.512Z,3.72
2023-02-24T07:08:23.218Z,2.75
2023-02-24T07:10:56.174Z,2.47
2023-02-24T07:13:29.963Z,2.83
2023-02-24T07:16:07.438Z,4.20
2023-02-24T07:18:37.488Z,3.53
2023-02-24T07:21:12.954Z,2.63
2023-02-24T07:23:43.294Z,3.33
2023-02-24T07:26:15.699Z,3.97
2023-02-24T07:28:48.184Z,3.17
2023-02-24T07:31:21.515Z,2.73
2023-02-24T07:33:56.230Z,2.70
2023-02-24T07:36:30.556Z,3.78
2023-02-24T07:39:01.667Z,3.03
2023-02-24T07:41:31.539Z,4.50
2023-02-24T07:44:03.462Z,2.83
2023-02-24T07:46:33.580Z,2.95
2023-02-24T07:49:04.259Z,4.35
2023-02-24T07:51:33.225Z,3.10
2023-02-24T07:54:03.562Z,3.45
2023-02-24T07:56:34.337Z,4.20
2023-02-24T07:59:08.120Z,4.88
2023-02-24T08:01:40.158Z,3.58
2023-02-24T08:04:12.735Z,3.88
2023-02-24T08:06:47.985Z,3.90
2023-02-24T08:09:19.156Z,4.15
2023-02-24T08:11:52.500Z,3.85
2023-02-24T08:16:59.757Z,3.00
2023-02-24T08:19:33.487Z,3.78
2023-02-24T08:22:19.668Z,5.28
2023-02-24T08:24:50.921Z,3.75
2023-02-24T08:27:21.606Z,5.35
2023-02-24T08:30:01.396Z,3.60
2023-02-24T08:32:37.791Z,4.55
2023-02-24T08:35:15.133Z,2.97
2023-02-24T08:37:48.327Z,5.10
2023-02-24T08:40:38.139Z,4.93
2023-02-24T08:43:17.485Z,3.88
2023-02-24T08:45:51.933Z,2.80
2023-02-24T08:48:32.386Z,3.92
2023-02-24T08:51:04.993Z,3.17
2023-02-24T08:53:34.146Z,4.00
2023-02-24T08:56:10.024Z,3.55
2023-02-24T08:58:47.606Z,4.57
2023-02-24T09:01:24.821Z,3.53
2023-02-24T09:03:56.796Z,3.20
2023-02-24T09:06:38.645Z,4.30
2023-02-24T09:09:22.871Z,3.17
2023-02-24T09:11:57.031Z,3.88
2023-02-24T09:14:30.653Z,3.20
2023-02-24T09:17:06.825Z,2.38
2023-02-24T09:19:55.323Z,3.40
2023-02-24T09:22:57.658Z,2.42
2023-02-24T09:25:41.044Z,3.53
2023-02-24T09:28:18.658Z,4.07
2023-02-24T09:30:53.748Z,3.42
2023-02-24T09:33:39.299Z,4.43
2023-02-24T09:36:11.363Z,3.35
2023-02-24T09:39:02.555Z,4.03
2023-02-24T09:41:54.274Z,3.80
2023-02-24T09:44:33.482Z,3.45
2023-02-24T09:47:11.113Z,4.00
2023-02-24T09:49:59.335Z,4.55
2023-02-24T09:52:40.045Z,4.30
2023-02-24T09:55:27.006Z,6.70
2023-02-24T09:58:20.453Z,4.80
2023-02-24T10:00:57.886Z,4.72
2023-02-24T10:03:48.321Z,4.95
2023-02-24T10:06:26.897Z,4.35
2023-02-24T10:11:37.007Z,6.28
2023-02-24T10:14:19.672Z,7.70
2023-02-24T10:17:10.510Z,8.15
2023-02-24T10:19:41.629Z,7.85
2023-02-24T10:22:28.731Z,7.35
2023-02-24T10:25:12.129Z,5.13
2023-02-24T10:27:58.050Z,5.40
2023-02-24T10:30:42.286Z,8.27
2023-02-24T10:33:20.711Z,6.45
2023-02-24T10:35:50.374Z,9.25
2023-02-24T10:38:21.463Z,7.93
2023-02-24T10:40:58.040Z,11.07
2023-02-24T10:43:31.627Z,9.15
2023-02-24T10:46:22.129Z,10.20
2023-02-24T10:49:01.785Z,10.77
2023-02-24T10:51:33.501Z,9.93
2023-02-24T10:54:34.619Z,9.73
2023-02-24T10:57:19.155Z,9.07
2023-02-24T11:00:09.712Z,6.15
2023-02-24T11:02:56.939Z,7.20
2023-02-24T11:05:38.197Z,8.38
2023-02-24T11:08:16.217Z,8.27
2023-02-24T11:11:07.066Z,7.70
2023-02-24T11:13:55.269Z,6.53
2023-02-24T11:16:42.020Z,8.65
2023-02-24T11:19:12.965Z,10.48
2023-02-24T11:21:42.853Z,7.90
2023-02-24T11:24:20.340Z,8.88
2023-02-24T11:26:50.740Z,10.23
2023-02-24T11:29:39.795Z,9.00
2023-02-24T11:32:23.612Z,11.85
2023-02-24T11:34:58.828Z,10.07
2023-02-24T11:37:38.998Z,9.85
2023-02-24T11:40:18.940Z,10.13
2023-02-24T11:42:57.125Z,9.45
2023-02-24T11:46:00.669Z,9.82
2023-02-24T11:48:49.102Z,6.53
2023-02-24T11:51:21.517Z,8.68
2023-02-24T11:53:54.336Z,9.20
2023-02-24T11:56:28.310Z,6.60
2023-02-24T11:59:05.708Z,4.18
2023-02-24T12:01:41.165Z,7.03
2023-02-24T12:04:21.083Z,5.95
2023-02-24T12:06:58.276Z,4.90
2023-02-24T12:09:33.539Z,3.70
2023-02-24T12:12:10.027Z,5.25
2023-02-24T12:14:51.796Z,4.18
2023-02-24T12:17:27.390Z,8.35
2023-02-24T12:20:06.152Z,6.00
2023-02-24T12:22:46.525Z,6.35
2023-02-24T12:25:25.524Z,5.68
2023-02-24T12:28:11.310Z,5.82
2023-02-24T12:30:57.998Z,5.50
2023-02-24T12:33:44.340Z,5.03
2023-02-24T12:36:29.246Z,5.63
2023-02-24T12:39:08.102Z,4.10
2023-02-24T12:41:51.588Z,4.32
2023-02-24T12:44:29.532Z,3.38
2023-02-24T12:47:10.970Z,4.05
2023-02-24T12:49:57.183Z,5.57
2023-02-24T12:52:37.107Z,5.80
2023-02-24T12:55:18.303Z,4.07
2023-02-24T12:57:53.437Z,3.80
2023-02-24T13:00:33.028Z,5.43
2023-02-24T13:03:20.961Z,5.38
2023-02-24T13:06:00.516Z,4.55
2023-02-24T13:08:42.460Z,4.45
2023-02-24T13:11:19.836Z,4.20
2023-02-24T13:13:57.974Z,7.20
2023-02-24T13:16:31.419Z,4.15
2023-02-24T13:22:03.223Z,4.57
2023-02-24T13:24:32.891Z,4.18
2023-02-24T13:27:20.656Z,5.10
2023-02-24T13:29:51.696Z,6.50
2023-02-24T13:32:33.000Z,4.53
2023-02-24T13:35:04.034Z,5.90
2023-02-24T13:37:36.905Z,3.47
2023-02-24T13:40:24.254Z,3.78
2023-02-24T13:43:01.878Z,1.35
2023-02-24T13:45:32.214Z,1.65
2023-02-24T13:48:23.599Z,3.67
2023-02-24T13:51:19.984Z,2.30
2023-02-24T13:54:04.869Z,2.95
2023-02-24T13:56:41.681Z,2.97
2023-02-24T13:59:51.270Z,2.72
2023-02-24T14:02:28.457Z,4.78
2023-02-24T14:04:59.922Z,4.20
2023-02-24T14:07:33.638Z,2.53
2023-02-24T14:10:07.335Z,3.42
2023-02-24T14:12:37.842Z,4.22
2023-02-24T14:15:13.319Z,3.50
2023-02-24T14:17:42.646Z,3.78
2023-02-24T14:20:21.036Z,3.72
2023-02-24T14:22:54.280Z,4.22
2023-02-24T14:25:26.481Z,5.50
2023-02-24T14:27:57.848Z,2.92
2023-02-24T14:30:32.885Z,2.65
2023-02-24T14:33:02.683Z,5.13
2023-02-24T14:35:38.141Z,1.88
2023-02-24T14:38:07.534Z,2.33
2023-02-24T14:40:38.473Z,3.35
2023-02-24T14:43:16.734Z,4.53
2023-02-24T14:45:50.890Z,8.15
2023-02-24T14:48:26.164Z,3.45
2023-02-24T14:50:59.446Z,3.97
2023-02-24T14:53:29.945Z,1.83
2023-02-24T14:56:05.841Z,2.22
2023-02-24T14:58:42.087Z,1.60
2023-02-24T15:01:21.910Z,2.55
2023-02-24T15:03:54.645Z,1.73
2023-02-24T15:06:26.846Z,2.60
2023-02-24T15:09:01.392Z,1.48
2023-02-24T15:11:34.335Z,1.00
2023-02-24T15:14:06.283Z,2.22
2023-02-24T15:16:41.131Z,2.20
2023-02-24T15:19:26.862Z,1.58
2023-02-24T15:21:56.478Z,1.35
2023-02-24T15:24:28.324Z,1.38
2023-02-24T15:27:03.143Z,2.15
2023-02-24T15:29:32.981Z,1.48
2023-02-24T15:32:07.538Z,1.17
2023-02-24T15:34:38.550Z,2.20
2023-02-24T15:37:16.801Z,2.88
2023-02-24T15:39:46.337Z,3.58
2023-02-24T15:42:28.721Z,2.20
2023-02-24T15:45:00.045Z,2.72
2023-02-24T15:47:31.605Z,2.53
2023-02-24T15:50:00.822Z,2.15
2023-02-24T15:52:31.131Z,1.98
2023-02-24T15:55:03.017Z,3.03
2023-02-24T15:57:34.552Z,2.33
2023-02-24T16:00:08.179Z,3.45
2023-02-24T16:02:41.487Z,2.08
2023-02-24T16:05:14.693Z,2.13
2023-02-24T16:07:45.951Z,2.95
2023-02-24T16:10:20.766Z,2.60
2023-02-24T16:12:53.700Z,2.90
2023-02-24T16:15:26.829Z,5.13
2023-02-24T16:17:56.678Z,2.55
2023-02-24T16:20:28.721Z,3.65
2023-02-24T16:22:59.079Z,3.72
2023-02-24T16:25:30.137Z,3.97
2023-02-24T16:28:00.998Z,4.72
2023-02-24T16:30:31.791Z,4.85
2023-02-24T16:33:03.783Z,3.78
2023-02-24T16:40:04.121Z,3.95
2023-02-24T16:42:34.877Z,3.85
2023-02-24T16:45:06.713Z,4.70
2023-02-24T16:47:36.734Z,2.75
2023-02-24T16:50:07.300Z,5.35
2023-02-24T16:52:37.220Z,2.88
2023-02-24T16:55:06.871Z,3.30
2023-02-24T16:57:39.425Z,6.05
2023-02-24T17:00:23.858Z,4.85
2023-02-24T17:02:54.887Z,3.00
2023-02-24T17:05:26.536Z,2.78
2023-02-24T17:07:57.937Z,2.15
2023-02-24T17:10:29.979Z,3.90
2023-02-24T17:12:59.524Z,2.55
2023-02-24T17:15:30.982Z,2.65
2023-02-24T17:18:00.648Z,3.03
2023-02-24T17:20:30.519Z,4.22
2023-02-24T17:23:03.563Z,2.75
2023-02-24T17:25:35.884Z,3.53
2023-02-24T17:28:09.184Z,3.70
2023-02-24T17:30:41.667Z,3.63
2023-02-24T17:33:14.990Z,3.08
2023-02-24T17:35:47.253Z,2.63
2023-02-24T17:38:18.279Z,2.92
2023-02-24T17:40:51.120Z,2.70
2023-02-24T17:43:20.678Z,4.95
2023-02-24T17:45:56.668Z,2.57
2023-02-24T17:48:26.125Z,5.70
2023-02-24T17:50:55.579Z,6.88
2023-02-24T17:53:26.514Z,2.95
2023-02-24T17:56:03.536Z,5.47
2023-02-24T17:58:36.196Z,3.03
2023-02-24T18:01:10.102Z,1.95
2023-02-24T18:03:39.156Z,3.65
2023-02-24T18:06:10.394Z,3.30
2023-02-24T18:08:41.406Z,2.58
2023-02-24T18:11:15.109Z,3.50
2023-02-24T18:13:44.194Z,2.70
2023-02-24T18:16:18.435Z,3.10
2023-02-24T18:18:50.164Z,5.00
2023-02-24T18:21:19.262Z,2.67
2023-02-24T18:23:49.777Z,4.00
2023-02-24T18:26:18.965Z,4.68
2023-02-24T18:28:48.204Z,3.53
2023-02-24T18:31:21.178Z,4.85
2023-02-24T18:33:51.355Z,3.95
2023-02-24T18:36:21.637Z,8.20
2023-02-24T18:38:53.548Z,4.38
2023-02-24T18:41:24.714Z,3.67
2023-02-24T18:43:55.624Z,5.32
2023-02-24T18:46:27.070Z,3.70
2023-02-24T18:48:57.278Z,7.20
2023-02-24T18:51:29.061Z,9.45
2023-02-24T18:54:01.708Z,6.78
2023-02-24T18:56:32.460Z,5.82
2023-02-24T18:59:02.878Z,13.98
2023-02-24T19:01:34.893Z,16.30
2023-02-24T19:04:07.842Z,8.73
2023-02-24T19:06:37.744Z,8.27
2023-02-24T19:09:09.968Z,5.18
2023-02-24T19:11:39.553Z,4.50
2023-02-24T19:14:12.073Z,5.00
2023-02-24T19:16:43.281Z,3.60
2023-02-24T19:19:15.266Z,6.35
2023-02-24T19:21:46.268Z,4.38
2023-02-24T19:24:16.074Z,5.57
2023-02-24T19:26:47.596Z,5.50
2023-02-24T19:29:17.401Z,6.28
2023-02-24T19:31:54.125Z,6.47
2023-02-24T19:34:23.914Z,4.32
2023-02-24T19:36:52.935Z,5.88
2023-02-24T19:39:21.877Z,5.68
2023-02-24T19:41:51.103Z,4.03
2023-02-24T19:44:20.348Z,5.03
2023-02-24T19:46:50.783Z,3.38
2023-02-24T19:49:19.801Z,4.65
2023-02-24T19:51:48.946Z,5.40
2023-02-24T19:54:18.529Z,4.97
2023-02-24T19:56:47.690Z,6.53
2023-02-24T19:59:17.220Z,8.07
2023-02-24T20:01:46.705Z,7.57
2023-02-24T20:04:17.614Z,11.85
2023-02-24T20:06:47.033Z,10.48
2023-02-24T20:09:18.176Z,17.50
2023-02-24T20:11:48.040Z,9.00
2023-02-24T20:14:18.892Z,6.25
2023-02-24T20:16:49.483Z,4.15
2023-02-24T20:19:20.632Z,5.80
2023-02-24T20:21:50.197Z,5.90
2023-02-24T20:24:19.911Z,16.73
2023-02-24T20:26:50.198Z,18.83
2023-02-24T20:29:22.064Z,7.32
2023-02-24T20:31:51.822Z,7.38
2023-02-24T20:34:24.949Z,5.75
2023-02-24T20:36:54.615Z,5.50
2023-02-24T20:39:25.364Z,7.15
2023-02-24T20:41:55.258Z,6.57
2023-02-24T20:44:24.760Z,10.13
2023-02-24T20:46:54.208Z,13.07
2023-02-24T20:49:24.740Z,10.35
2023-02-24T20:51:54.883Z,7.72
2023-02-24T20:54:24.621Z,9.48
2023-02-24T20:56:53.815Z,7.55
2023-02-24T20:59:24.116Z,5.72
2023-02-24T21:01:53.313Z,6.53
2023-02-24T21:04:24.781Z,13.15
2023-02-24T21:06:54.389Z,6.07
2023-02-24T21:09:23.437Z,4.95
2023-02-24T21:11:53.151Z,5.93
2023-02-24T21:14:24.942Z,6.38
2023-02-24T21:16:54.212Z,4.93
2023-02-24T21:19:24.999Z,7.57
2023-02-24T21:21:53.997Z,5.68
2023-02-24T21:24:24.062Z,4.32
2023-02-24T21:26:53.196Z,5.53
2023-02-24T21:29:22.447Z,5.22
2023-02-24T21:31:51.904Z,4.65
2023-02-24T21:34:22.017Z,6.30
2023-02-24T21:36:52.422Z,5.85
2023-02-24T21:39:21.814Z,5.47
2023-02-24T21:41:50.755Z,5.38
2023-02-24T21:44:21.756Z,5.82
2023-02-24T21:46:51.359Z,4.57
2023-02-24T21:49:20.333Z,4.30
2023-02-24T21:51:52.458Z,2.42
2023-02-24T21:54:22.374Z,2.80
2023-02-24T21:56:51.345Z,2.58
2023-02-24T21:59:20.701Z,3.05
2023-02-24T22:01:50.219Z,3.10
2023-02-24T22:04:20.417Z,3.65
2023-02-24T22:06:49.426Z,4.72
2023-02-24T22:09:20.878Z,3.72
2023-02-24T22:11:51.237Z,4.00
2023-02-24T22:14:21.579Z,4.20
2023-02-24T22:16:50.830Z,4.57
2023-02-24T22:19:20.328Z,4.45
2023-02-24T22:21:53.129Z,4.32
2023-02-24T22:24:23.684Z,2.58
2023-02-24T22:26:52.816Z,2.92
2023-02-24T22:29:22.200Z,2.50
2023-02-24T22:31:51.819Z,2.80
2023-02-24T22:34:21.595Z,2.72
2023-02-24T22:36:50.748Z,6.90
2023-02-24T22:39:20.039Z,7.03
2023-02-24T22:41:52.855Z,6.88
2023-02-24T22:44:22.436Z,2.75
2023-02-24T22:46:51.619Z,3.55
2023-02-24T22:49:21.170Z,3.45
2023-02-24T22:51:50.524Z,2.30
2023-02-24T22:54:20.810Z,2.47
2023-02-24T22:56:52.204Z,2.33
2023-02-24T22:59:21.284Z,2.00
2023-02-24T23:01:51.138Z,3.72
2023-02-24T23:04:21.082Z,2.88
2023-02-24T23:06:50.789Z,3.40
2023-02-24T23:09:20.544Z,3.38
2023-02-24T23:11:51.045Z,4.68
2023-02-24T23:14:20.692Z,3.80
2023-02-24T23:16:55.788Z,3.72
2023-02-24T23:19:25.756Z,3.75
2023-02-24T23:21:56.616Z,4.57
2023-02-24T23:24:26.033Z,5.88
2023-02-24T23:26:57.950Z,4.57
2023-02-24T23:29:28.215Z,3.47
2023-02-24T23:31:57.528Z,3.95
2023-02-24T23:34:27.019Z,4.25
2023-02-24T23:36:56.561Z,3.30
2023-02-24T23:39:25.882Z,5.10
2023-02-24T23:41:57.884Z,4.32
2023-02-24T23:44:27.763Z,4.25
2023-02-24T23:46:58.641Z,5.10
2023-02-24T23:49:36.283Z,5.13
2023-02-24T23:52:15.332Z,3.63
2023-02-24T23:54:44.984Z,3.17
2023-02-24T23:57:15.881Z,3.35
2023-02-24T23:59:45.091Z,3.00
